createdAt,value
2023-03-20T00:02:05.892Z,5.90
2023-03-20T00:04:33.512Z,6.80
2023-03-20T00:07:00.507Z,6.80
2023-03-20T00:09:28.400Z,6.17
2023-03-20T00:11:56.210Z,5.73
2023-03-20T00:14:24.887Z,6.00
2023-03-20T00:16:52.930Z,6.10
2023-03-20T00:19:31.283Z,6.23
2023-03-20T00:21:58.865Z,6.20
2023-03-20T00:24:26.043Z,6.37
2023-03-20T00:26:54.152Z,6.20
2023-03-20T00:29:27.702Z,6.63
2023-03-20T00:31:56.364Z,6.37
2023-03-20T00:34:27.291Z,6.43
2023-03-20T00:36:56.307Z,6.77
2023-03-20T00:39:24.346Z,6.83
2023-03-20T00:41:58.919Z,7.37
2023-03-20T00:44:50.403Z,6.60
2023-03-20T00:47:23.312Z,6.27
2023-03-20T00:49:53.159Z,7.07
2023-03-20T00:52:22.668Z,6.67
2023-03-20T00:54:51.751Z,6.93
2023-03-20T00:57:41.912Z,6.03
2023-03-20T01:00:24.737Z,6.07
2023-03-20T01:02:54.726Z,6.60
2023-03-20T01:05:27.430Z,6.47
2023-03-20T01:07:55.960Z,7.17
2023-03-20T01:10:32.290Z,7.53
2023-03-20T01:13:02.905Z,7.37
2023-03-20T01:15:34.589Z,7.33
2023-03-20T01:18:01.734Z,6.77
2023-03-20T01:20:31.347Z,7.57
2023-03-20T01:22:58.400Z,8.07
2023-03-20T01:25:25.848Z,7.13
2023-03-20T01:27:54.972Z,7.97
2023-03-20T01:30:26.245Z,7.03
2023-03-20T01:32:54.783Z,6.63
2023-03-20T01:35:25.997Z,7.70
2023-03-20T01:37:53.603Z,7.40
2023-03-20T01:40:36.068Z,6.77
2023-03-20T01:43:03.561Z,7.57
2023-03-20T01:45:36.691Z,6.80
2023-03-20T01:48:19.106Z,7.57
2023-03-20T01:50:46.461Z,8.33
2023-03-20T01:53:22.669Z,8.20
2023-03-20T01:55:58.648Z,8.20
2023-03-20T01:58:39.111Z,8.10
2023-03-20T02:01:10.998Z,9.87
2023-03-20T02:03:48.408Z,8.97
2023-03-20T02:06:23.485Z,9.93
2023-03-20T02:09:16.747Z,9.20
2023-03-20T02:11:47.682Z,9.80
2023-03-20T02:14:16.852Z,9.30
2023-03-20T02:16:54.246Z,9.30
2023-03-20T02:20:50.347Z,9.73
2023-03-20T02:24:01.813Z,10.17
2023-03-20T02:27:24.362Z,10.57
2023-03-20T02:30:24.264Z,9.57
2023-03-20T02:33:28.362Z,10.53
2023-03-20T02:36:26.351Z,10.23
2023-03-20T02:39:16.522Z,9.90
2023-03-20T02:42:10.749Z,10.27
2023-03-20T02:45:06.091Z,9.70
2023-03-20T02:47:54.044Z,9.90
2023-03-20T02:50:40.731Z,10.33
2023-03-20T02:53:39.023Z,10.03
2023-03-20T02:56:23.228Z,9.40
2023-03-20T02:59:33.389Z,9.60
2023-03-20T03:02:08.959Z,9.30
2023-03-20T03:04:50.019Z,9.47
2023-03-20T03:07:24.347Z,9.00
2023-03-20T03:10:05.093Z,8.40
2023-03-20T03:12:39.677Z,8.53
2023-03-20T03:15:34.863Z,9.20
2023-03-20T03:18:07.366Z,8.97
2023-03-20T03:20:39.383Z,9.00
2023-03-20T03:23:07.536Z,8.67
2023-03-20T03:25:42.105Z,8.83
2023-03-20T03:28:23.587Z,8.63
2023-03-20T03:30:53.784Z,8.37
2023-03-20T03:33:29.850Z,9.07
2023-03-20T03:36:37.788Z,9.43
2023-03-20T03:39:24.312Z,8.93
2023-03-20T03:42:31.865Z,8.77
2023-03-20T03:45:14.939Z,8.80
2023-03-20T03:48:04.518Z,8.63
2023-03-20T03:50:48.400Z,8.40
2023-03-20T03:53:27.632Z,9.30
2023-03-20T03:56:02.346Z,9.77
2023-03-20T03:59:01.675Z,8.30
2023-03-20T04:01:32.413Z,9.37
2023-03-20T04:04:07.063Z,9.17
2023-03-20T04:06:34.126Z,9.00
2023-03-20T04:09:01.511Z,8.67
2023-03-20T04:11:29.214Z,9.63
2023-03-20T04:13:56.690Z,9.50
2023-03-20T04:16:25.906Z,8.77
2023-03-20T04:18:55.611Z,8.57
2023-03-20T04:21:23.017Z,8.83
2023-03-20T04:23:51.929Z,8.70
2023-03-20T04:26:22.670Z,8.60
2023-03-20T04:28:51.640Z,8.53
2023-03-20T04:31:37.331Z,8.37
2023-03-20T04:34:16.355Z,9.20
2023-03-20T04:37:02.805Z,8.90
2023-03-20T04:39:42.990Z,9.07
2023-03-20T04:42:10.964Z,8.83
2023-03-20T04:44:37.979Z,8.03
2023-03-20T04:47:05.321Z,8.43
2023-03-20T04:49:34.040Z,8.90
2023-03-20T04:52:01.533Z,8.70
2023-03-20T04:54:38.208Z,7.73
2023-03-20T04:57:05.176Z,8.40
2023-03-20T04:59:32.827Z,8.17
2023-03-20T05:01:59.796Z,8.53
2023-03-20T05:04:27.935Z,7.93
2023-03-20T05:06:56.650Z,7.57
2023-03-20T05:09:28.614Z,7.97
2023-03-20T05:11:57.282Z,7.63
2023-03-20T05:14:56.445Z,7.53
2023-03-20T05:17:32.132Z,7.57
2023-03-20T05:20:06.008Z,6.57
2023-03-20T05:22:40.425Z,7.97
2023-03-20T05:25:31.013Z,7.47
2023-03-20T05:28:23.969Z,7.23
2023-03-20T05:31:07.332Z,7.13
2023-03-20T05:33:53.784Z,7.60
2023-03-20T05:36:30.994Z,8.37
2023-03-20T05:39:16.719Z,7.20
2023-03-20T05:42:04.050Z,7.40
2023-03-20T05:44:56.988Z,7.30
2023-03-20T05:47:44.305Z,6.70
2023-03-20T05:50:34.179Z,7.40
2023-03-20T05:53:13.369Z,7.17
2023-03-20T05:56:06.856Z,7.40
2023-03-20T05:58:39.714Z,7.17
2023-03-20T06:01:22.209Z,7.23
2023-03-20T06:04:08.572Z,7.30
2023-03-20T06:07:07.617Z,7.37
2023-03-20T06:09:36.050Z,7.20
2023-03-20T06:12:08.067Z,7.60
2023-03-20T06:14:35.245Z,7.40
2023-03-20T06:17:06.591Z,7.43
2023-03-20T06:19:34.437Z,7.10
2023-03-20T06:22:01.735Z,6.77
2023-03-20T06:24:31.115Z,6.83
2023-03-20T06:26:59.255Z,7.00
2023-03-20T06:29:27.226Z,6.83
2023-03-20T06:31:59.459Z,6.13
2023-03-20T06:34:30.254Z,6.83
2023-03-20T06:36:57.363Z,6.47
2023-03-20T06:39:24.843Z,7.23
2023-03-20T06:41:52.870Z,7.07
2023-03-20T06:44:23.374Z,6.07
2023-03-20T06:47:19.677Z,6.30
2023-03-20T06:49:47.099Z,6.37
2023-03-20T06:52:21.772Z,6.47
2023-03-20T06:55:03.104Z,6.43
2023-03-20T06:57:30.260Z,6.37
2023-03-20T06:59:57.217Z,6.13
2023-03-20T07:02:24.365Z,5.63
2023-03-20T07:04:51.384Z,6.53
2023-03-20T07:07:19.291Z,6.43
2023-03-20T07:09:46.625Z,5.97
2023-03-20T07:12:15.849Z,6.07
2023-03-20T07:14:43.894Z,6.60
2023-03-20T07:17:15.418Z,6.27
2023-03-20T07:19:42.830Z,5.97
2023-03-20T07:22:22.493Z,6.27
2023-03-20T07:24:50.662Z,6.70
2023-03-20T07:27:19.420Z,6.73
2023-03-20T07:29:46.639Z,6.70
2023-03-20T07:32:17.567Z,6.60
2023-03-20T07:34:51.306Z,6.23
2023-03-20T07:37:20.250Z,6.00
2023-03-20T07:39:57.673Z,6.00
2023-03-20T07:42:32.843Z,5.53
2023-03-20T07:45:09.532Z,5.50
2023-03-20T07:47:37.759Z,5.60
2023-03-20T07:50:08.319Z,5.57
2023-03-20T07:52:36.837Z,5.73
2023-03-20T07:55:04.059Z,5.83
2023-03-20T07:57:31.386Z,5.10
2023-03-20T07:59:58.893Z,5.93
2023-03-20T08:02:25.970Z,5.87
2023-03-20T08:04:52.821Z,5.13
2023-03-20T08:07:20.262Z,5.60
2023-03-20T08:09:47.531Z,6.07
2023-03-20T08:12:14.724Z,5.60
2023-03-20T08:14:43.733Z,5.23
2023-03-20T08:17:15.453Z,5.47
2023-03-20T08:19:44.611Z,5.47
2023-03-20T08:22:12.348Z,4.93
2023-03-20T08:24:39.331Z,5.30
2023-03-20T08:27:06.441Z,5.80
2023-03-20T08:29:33.429Z,5.30
2023-03-20T08:32:00.468Z,5.37
2023-03-20T08:34:27.481Z,5.03
2023-03-20T08:36:54.671Z,5.13
2023-03-20T08:39:21.944Z,4.67
2023-03-20T08:41:49.681Z,4.70
2023-03-20T08:44:17.037Z,4.50
2023-03-20T08:46:46.298Z,4.93
2023-03-20T08:49:13.595Z,5.07
2023-03-20T08:51:40.628Z,4.80
2023-03-20T08:54:08.119Z,4.60
2023-03-20T08:56:35.150Z,4.50
2023-03-20T08:59:02.254Z,4.60
2023-03-20T09:01:45.946Z,4.60
2023-03-20T09:04:15.273Z,5.00
2023-03-20T09:06:42.542Z,4.20
2023-03-20T09:09:09.569Z,4.70
2023-03-20T09:11:36.949Z,4.40
2023-03-20T09:14:03.933Z,4.17
2023-03-20T09:16:31.171Z,4.03
2023-03-20T09:18:58.358Z,3.80
2023-03-20T09:21:25.703Z,4.30
2023-03-20T09:23:52.875Z,3.83
2023-03-20T09:26:19.816Z,4.07
2023-03-20T09:28:46.814Z,4.47
2023-03-20T09:31:13.943Z,4.20
2023-03-20T09:33:41.277Z,3.53
2023-03-20T09:36:11.498Z,3.50
2023-03-20T09:38:38.722Z,3.80
2023-03-20T09:41:06.683Z,4.03
2023-03-20T09:44:21.140Z,3.67
2023-03-20T09:47:22.245Z,3.77
2023-03-20T09:50:46.874Z,4.23
2023-03-20T09:53:29.770Z,3.67
2023-03-20T09:55:57.868Z,3.53
2023-03-20T09:58:34.128Z,3.67
2023-03-20T10:01:05.484Z,3.90
2023-03-20T10:03:55.883Z,3.33
2023-03-20T10:06:22.971Z,3.60
2023-03-20T10:08:52.130Z,3.90
2023-03-20T10:11:19.172Z,3.60
2023-03-20T10:14:21.914Z,3.87
2023-03-20T10:17:17.757Z,3.90
2023-03-20T10:19:59.335Z,3.80
2023-03-20T10:22:43.110Z,4.60
2023-03-20T10:25:12.797Z,3.87
2023-03-20T10:27:58.740Z,4.33
2023-03-20T10:30:40.921Z,4.30
2023-03-20T10:33:28.172Z,5.30
2023-03-20T10:36:48.994Z,4.67
2023-03-20T10:39:36.617Z,4.90
2023-03-20T10:42:13.822Z,5.03
2023-03-20T10:44:50.005Z,5.37
2023-03-20T10:47:24.436Z,4.97
2023-03-20T10:50:06.513Z,4.60
2023-03-20T10:52:39.442Z,4.30
2023-03-20T10:55:20.855Z,4.20
2023-03-20T10:58:07.363Z,4.40
2023-03-20T11:00:34.748Z,4.13
2023-03-20T11:03:01.933Z,4.00
2023-03-20T11:05:35.559Z,4.13
2023-03-20T11:08:11.696Z,4.17
2023-03-20T11:10:42.008Z,4.00
2023-03-20T11:13:31.847Z,4.33
2023-03-20T11:16:31.762Z,4.90
2023-03-20T11:19:07.729Z,3.80
2023-03-20T11:21:45.786Z,3.80
2023-03-20T11:24:41.760Z,4.00
2023-03-20T11:27:19.276Z,4.20
2023-03-20T11:29:51.308Z,4.80
2023-03-20T11:32:31.185Z,4.17
2023-03-20T11:35:26.578Z,4.20
2023-03-20T11:38:07.234Z,4.40
2023-03-20T11:40:35.598Z,4.10
2023-03-20T11:43:11.185Z,4.57
2023-03-20T11:45:46.145Z,4.17
2023-03-20T11:48:26.125Z,4.40
2023-03-20T11:51:16.807Z,3.43
2023-03-20T11:53:49.706Z,4.10
2023-03-20T11:56:33.192Z,4.20
2023-03-20T11:59:14.810Z,4.33
2023-03-20T12:01:50.640Z,3.90
2023-03-20T12:04:32.291Z,3.93
2023-03-20T12:07:23.014Z,4.40
2023-03-20T12:10:10.490Z,4.40
2023-03-20T12:12:57.925Z,4.03
2023-03-20T12:15:39.123Z,4.07
2023-03-20T12:18:40.933Z,3.90
2023-03-20T12:21:20.233Z,4.60
2023-03-20T12:24:05.220Z,4.53
2023-03-20T12:26:35.034Z,4.60
2023-03-20T12:29:31.489Z,4.00
2023-03-20T12:32:20.016Z,4.40
2023-03-20T12:34:56.375Z,4.93
2023-03-20T12:37:24.015Z,4.33
2023-03-20T12:40:01.796Z,4.43
2023-03-20T12:43:20.094Z,4.77
2023-03-20T12:46:09.659Z,4.27
2023-03-20T12:48:48.880Z,4.30
2023-03-20T12:51:40.639Z,4.20
2023-03-20T12:54:49.198Z,4.17
2023-03-20T12:57:32.128Z,5.07
2023-03-20T13:00:49.709Z,4.20
2023-03-20T13:03:45.740Z,4.90
2023-03-20T13:06:49.824Z,4.47
2023-03-20T13:09:57.365Z,4.37
2023-03-20T13:13:00.466Z,3.90
2023-03-20T13:16:25.100Z,3.93
2023-03-20T13:19:06.911Z,3.90
2023-03-20T13:21:56.734Z,3.77
2023-03-20T13:24:38.543Z,3.73
2023-03-20T13:27:39.359Z,3.43
2023-03-20T13:30:33.283Z,3.37
2023-03-20T13:33:37.965Z,3.37
2023-03-20T13:37:12.444Z,3.87
2023-03-20T13:39:55.914Z,3.30
2023-03-20T13:42:32.863Z,3.13
2023-03-20T13:45:25.329Z,3.77
2023-03-20T13:47:55.068Z,3.97
2023-03-20T13:50:43.132Z,3.77
2023-03-20T13:53:24.372Z,3.23
2023-03-20T13:56:15.652Z,3.33
2023-03-20T13:59:16.394Z,3.10
2023-03-20T14:02:13.012Z,3.97
2023-03-20T14:04:41.795Z,3.00
2023-03-20T14:07:36.395Z,2.97
2023-03-20T14:10:21.617Z,3.10
2023-03-20T14:13:17.621Z,3.50
2023-03-20T14:15:57.241Z,3.07
2023-03-20T14:18:26.529Z,3.10
2023-03-20T14:20:58.820Z,3.10
2023-03-20T14:23:36.772Z,3.27
2023-03-20T14:26:18.376Z,2.87
2023-03-20T14:29:19.662Z,3.10
2023-03-20T14:31:52.165Z,3.10
2023-03-20T14:34:26.051Z,3.13
2023-03-20T14:37:04.171Z,2.87
2023-03-20T14:40:01.779Z,2.80
2023-03-20T14:42:49.831Z,3.40
2023-03-20T14:45:31.101Z,3.30
2023-03-20T14:48:01.948Z,2.83
2023-03-20T14:50:37.717Z,3.13
2023-03-20T14:53:21.451Z,3.00
2023-03-20T14:55:57.579Z,3.43
2023-03-20T14:58:53.640Z,3.13
2023-03-20T15:01:20.590Z,3.07
2023-03-20T15:03:53.815Z,3.77
2023-03-20T15:06:24.808Z,2.53
2023-03-20T15:09:04.599Z,2.80
2023-03-20T15:11:32.898Z,3.33
2023-03-20T15:14:03.317Z,2.70
2023-03-20T15:16:35.318Z,3.20
2023-03-20T15:19:27.262Z,2.80
2023-03-20T15:21:55.901Z,3.03
2023-03-20T15:24:27.803Z,2.57
2023-03-20T15:27:00.140Z,2.90
2023-03-20T15:29:29.627Z,2.80
2023-03-20T15:32:13.499Z,2.73
2023-03-20T15:34:44.171Z,3.30
2023-03-20T15:37:16.632Z,3.40
2023-03-20T15:39:49.069Z,2.73
2023-03-20T15:42:21.235Z,2.70
2023-03-20T15:44:52.190Z,2.80
2023-03-20T15:47:22.876Z,2.70
2023-03-20T15:50:02.795Z,2.97
2023-03-20T15:52:53.365Z,2.87
2023-03-20T15:55:24.808Z,2.53
2023-03-20T15:57:55.837Z,2.83
2023-03-20T16:00:42.412Z,3.23
2023-03-20T16:03:18.683Z,2.70
2023-03-20T16:05:49.541Z,2.67
2023-03-20T16:08:28.573Z,3.10
2023-03-20T16:11:13.038Z,2.40
2023-03-20T16:13:47.830Z,2.47
2023-03-20T16:16:20.595Z,3.13
2023-03-20T16:18:48.324Z,2.83
2023-03-20T16:21:23.417Z,3.23
2023-03-20T16:23:56.263Z,3.23
2023-03-20T16:26:27.169Z,2.97
2023-03-20T16:29:02.537Z,2.90
2023-03-20T16:31:34.279Z,2.97
2023-03-20T16:34:08.334Z,2.80
2023-03-20T16:36:38.810Z,2.90
2023-03-20T16:39:19.262Z,3.40
2023-03-20T16:41:50.019Z,2.80
2023-03-20T16:44:27.682Z,3.13
2023-03-20T16:47:14.169Z,3.00
2023-03-20T16:49:47.142Z,3.70
2023-03-20T16:52:16.660Z,3.23
2023-03-20T16:54:45.375Z,3.77
2023-03-20T16:57:19.173Z,3.50
2023-03-20T16:59:46.723Z,3.30
2023-03-20T17:02:41.055Z,3.37
2023-03-20T17:05:13.567Z,4.07
2023-03-20T17:07:42.704Z,3.77
2023-03-20T17:10:18.075Z,3.93
2023-03-20T17:12:48.870Z,3.40
2023-03-20T17:15:21.644Z,3.53
2023-03-20T17:17:49.187Z,3.60
2023-03-20T17:20:28.432Z,3.47
2023-03-20T17:22:55.443Z,3.40
2023-03-20T17:25:22.725Z,3.60
2023-03-20T17:27:50.308Z,3.80
2023-03-20T17:30:25.011Z,3.90
2023-03-20T17:32:52.444Z,3.90
2023-03-20T17:35:19.963Z,3.53
2023-03-20T17:37:48.230Z,4.40
2023-03-20T17:40:22.230Z,4.37
2023-03-20T17:42:49.470Z,4.07
2023-03-20T17:45:20.565Z,4.17
2023-03-20T17:47:48.220Z,4.00
2023-03-20T17:50:26.926Z,3.73
2023-03-20T17:52:55.072Z,4.60
2023-03-20T17:55:22.662Z,3.97
2023-03-20T17:57:49.650Z,4.20
2023-03-20T18:00:24.823Z,3.80
2023-03-20T18:02:52.384Z,4.23
2023-03-20T18:05:19.774Z,4.07
2023-03-20T18:07:47.792Z,4.70
2023-03-20T18:10:36.998Z,4.23
2023-03-20T18:13:04.467Z,4.67
2023-03-20T18:15:31.638Z,4.20
2023-03-20T18:17:59.392Z,4.10
2023-03-20T18:20:34.428Z,4.30
2023-03-20T18:23:01.982Z,4.23
2023-03-20T18:25:30.148Z,3.80
2023-03-20T18:28:00.106Z,4.40
2023-03-20T18:30:39.197Z,4.00
2023-03-20T18:33:06.862Z,4.47
2023-03-20T18:35:35.985Z,4.33
2023-03-20T18:38:04.498Z,4.53
2023-03-20T18:40:37.359Z,4.57
2023-03-20T18:43:04.948Z,4.23
2023-03-20T18:45:32.748Z,4.63
2023-03-20T18:48:03.636Z,4.70
2023-03-20T18:50:38.008Z,5.43
2023-03-20T18:53:07.968Z,4.20
2023-03-20T18:55:36.790Z,5.30
2023-03-20T18:58:06.058Z,4.60
2023-03-20T19:00:42.423Z,6.03
2023-03-20T19:03:11.459Z,4.63
2023-03-20T19:05:39.204Z,5.20
2023-03-20T19:08:06.760Z,4.73
2023-03-20T19:10:37.013Z,5.00
2023-03-20T19:13:07.563Z,4.70
2023-03-20T19:15:37.398Z,4.93
2023-03-20T19:18:17.856Z,4.83
2023-03-20T19:20:48.508Z,4.87
2023-03-20T19:23:19.595Z,4.93
2023-03-20T19:25:52.269Z,5.30
2023-03-20T19:28:36.915Z,4.73
2023-03-20T19:31:06.499Z,5.27
2023-03-20T19:33:34.233Z,5.07
2023-03-20T19:36:04.365Z,5.40
2023-03-20T19:38:33.416Z,5.87
2023-03-20T19:41:01.932Z,4.70
2023-03-20T19:43:29.413Z,4.80
2023-03-20T19:45:59.176Z,4.93
2023-03-20T19:48:46.010Z,5.10
2023-03-20T19:51:25.831Z,5.13
2023-03-20T19:53:54.434Z,4.80
2023-03-20T19:56:23.157Z,5.00
2023-03-20T19:58:51.143Z,5.30
2023-03-20T20:01:25.282Z,5.00
2023-03-20T20:03:57.710Z,5.50
2023-03-20T20:06:31.148Z,4.87
2023-03-20T20:08:59.591Z,4.80
2023-03-20T20:11:26.484Z,4.93
2023-03-20T20:14:10.287Z,4.70
2023-03-20T20:16:42.458Z,5.30
2023-03-20T20:19:09.742Z,4.90
2023-03-20T20:24:25.701Z,4.90
2023-03-20T20:27:14.777Z,4.80
2023-03-20T20:29:45.866Z,5.23
2023-03-20T20:32:12.938Z,4.70
2023-03-20T20:40:19.928Z,5.20
2023-03-20T20:42:50.014Z,5.07
2023-03-20T20:45:18.963Z,5.23
2023-03-20T20:47:47.732Z,4.90
2023-03-20T20:50:21.724Z,5.17
2023-03-20T20:52:49.581Z,5.27
2023-03-20T20:55:24.068Z,5.40
2023-03-20T20:57:53.660Z,5.40
2023-03-20T21:00:27.510Z,5.43
2023-03-20T21:02:58.841Z,5.47
2023-03-20T21:05:27.553Z,5.53
2023-03-20T21:07:54.601Z,5.23
2023-03-20T21:10:22.437Z,5.17
2023-03-20T21:12:58.928Z,5.13
2023-03-20T21:15:26.864Z,5.30
2023-03-20T21:18:01.090Z,5.50
2023-03-20T21:20:31.228Z,4.87
2023-03-20T21:22:58.713Z,5.07
2023-03-20T21:25:39.241Z,5.43
2023-03-20T21:28:09.294Z,4.97
2023-03-20T21:30:43.215Z,5.17
2023-03-20T21:33:13.951Z,5.13
2023-03-20T21:35:44.638Z,5.83
2023-03-20T21:41:08.380Z,4.93
2023-03-20T21:43:35.437Z,4.90
2023-03-20T21:49:43.060Z,4.80
2023-03-20T21:58:03.479Z,4.80
2023-03-20T22:00:52.909Z,4.60
2023-03-20T22:02:55.405Z,4.60
2023-03-20T22:11:45.265Z,4.70
2023-03-20T22:20:07.836Z,3.90
2023-03-20T22:23:09.508Z,4.23
2023-03-20T22:28:22.371Z,4.70
2023-03-20T22:31:24.039Z,4.77
2023-03-20T22:47:16.116Z,4.10
2023-03-20T22:49:43.127Z,4.73
2023-03-20T22:52:26.744Z,4.50
2023-03-20T22:54:59.455Z,5.00
2023-03-20T22:57:34.977Z,3.90
2023-03-20T23:00:10.412Z,4.67
2023-03-20T23:02:37.502Z,5.47
2023-03-20T23:05:04.758Z,4.90
2023-03-20T23:07:31.977Z,5.07
2023-03-20T23:10:00.460Z,4.70
2023-03-20T23:12:27.716Z,5.30
2023-03-20T23:14:55.560Z,5.27
2023-03-20T23:17:22.527Z,5.30
2023-03-20T23:19:54.298Z,5.00
2023-03-20T23:22:28.940Z,4.83
2023-03-20T23:24:59.880Z,4.80
2023-03-20T23:27:30.139Z,5.53
2023-03-20T23:29:57.240Z,5.10
2023-03-20T23:32:25.312Z,5.53
2023-03-20T23:34:53.034Z,5.20
2023-03-20T23:37:20.173Z,4.87
2023-03-20T23:39:47.084Z,5.27
2023-03-20T23:42:29.374Z,4.67
2023-03-20T23:45:02.208Z,4.97
2023-03-20T23:47:44.535Z,5.33
2023-03-20T23:50:20.808Z,4.70
2023-03-20T23:53:01.328Z,4.97
2023-03-20T23:55:35.684Z,4.80
2023-03-20T23:58:03.076Z,5.10
